Aérodrome :
LOGIN :

S'inscrire | Disclaimer

   EN    FR    IT 

 










Légende :    VFR   VFR Marginal   IFR   IFR Intensif   IFR Très Intensif
Visi : 
Plafond : 
>= 8 km
>= 3000ft
5 à 8 km
1000 à 3000 ft
1500m à 5 km
500 à 1000 ft
800 à 1500m
200 à 500 ft
< 800m
< 200 ft
Symboles :   Orages  Brouillard  Fortes neiges  Fortes précipitations  Vent > 20 kt
SIGMETs :   Divers  Orages  Givrage  Turbulence  Onde Orograph.  Cendres Volcan.






- Altitude de l'aérodrome : 170 ft
- Code IATA : BGO


ENBR - Bergen , Flesland

DERNIER METAR :
  • 280450Z 14009KT 9999 SCT035 11/09 Q1013 NOSIG RMK WIND 1200FT 15019KT

METARs EXPIRÉS :
  • 280420Z 14010KT 9999 BKN035 11/09 Q1013 NOSIG RMK WIND 1200FT 14018KT
  • 280350Z 14009KT 9999 FEW030 SCT050 10/09 Q1013 RMK WIND 1200FT 14017KT
  • 280320Z 14009KT 9999 SCT050 11/09 Q1013 RMK WIND 1200FT 14014KT
  • 280250Z 14010KT 9999 SCT055 11/09 Q1012 RMK WIND 1200FT 15016KT
  • 280220Z 13009KT CAVOK 11/09 Q1012 RMK WIND 1200FT 16015KT
  • 280150Z 15008KT 9999 FEW024 SCT038 11/09 Q1012 RMK WIND 1200FT 17016KT

TAF TAF ENBR
Valide du 28 à 00h jusqu'au 29 à 00h UTC


2800/2824 18010KT 9999 FEW015 BKN025
PROB40
TEMPO 2810/2817 17015G25KT SCT020CB



MET'MAP, la Météo Aéronautique d'un coup d'oeil ! - Copyright ORBIFLY Décembre 2007 - Disclaimer

ORBIFLY MET'MAP TEAM :

Programmation & Développement : Alexandra Zaïnal
Sur une idée originale de : Baudouin d'Aumeries
Assistance à la programmation : Marc-Olivier Méhu
Soutien technique & logistique : Manuel Goepfert

Contact : metmap@orbifly.com




SOURCES & CREDITS :

   NOAA